sensor_id;sensor_type;location;lat;lon;timestamp;P1;durP1;ratioP1;P2;durP2;ratioP2
39924;SDS011;25592;49.986;11.618;2023-05-16T00:00:24;8.45;;;5.90;;
39924;SDS011;25592;49.986;11.618;2023-05-16T00:03:10;9.18;;;5.28;;
39924;SDS011;25592;49.986;11.618;2023-05-16T00:05:56;7.30;;;4.75;;
39924;SDS011;25592;49.986;11.618;2023-05-16T00:08:41;6.82;;;5.22;;
39924;SDS011;25592;49.986;11.618;2023-05-16T00:11:27;10.90;;;5.40;;
39924;SDS011;25592;49.986;11.618;2023-05-16T00:14:12;8.18;;;5.32;;
39924;SDS011;25592;49.986;11.618;2023-05-16T00:16:58;8.38;;;5.20;;
39924;SDS011;25592;49.986;11.618;2023-05-16T00:19:45;7.35;;;4.78;;
39924;SDS011;25592;49.986;11.618;2023-05-16T00:22:32;9.23;;;5.07;;
39924;SDS011;25592;49.986;11.618;2023-05-16T00:25:18;9.60;;;4.57;;
39924;SDS011;25592;49.986;11.618;2023-05-16T00:28:03;10.75;;;4.65;;
39924;SDS011;25592;49.986;11.618;2023-05-16T00:30:48;6.93;;;5.00;;
39924;SDS011;25592;49.986;11.618;2023-05-16T00:33:34;8.55;;;4.90;;
39924;SDS011;25592;49.986;11.618;2023-05-16T00:36:19;7.53;;;4.78;;
39924;SDS011;25592;49.986;11.618;2023-05-16T00:39:08;8.52;;;4.72;;
39924;SDS011;25592;49.986;11.618;2023-05-16T00:41:55;9.93;;;4.53;;
39924;SDS011;25592;49.986;11.618;2023-05-16T00:44:41;8.00;;;4.75;;
39924;SDS011;25592;49.986;11.618;2023-05-16T00:47:26;11.50;;;5.53;;
39924;SDS011;25592;49.986;11.618;2023-05-16T00:50:12;6.63;;;4.63;;
39924;SDS011;25592;49.986;11.618;2023-05-16T00:52:57;6.65;;;4.95;;
39924;SDS011;25592;49.986;11.618;2023-05-16T00:55:43;6.78;;;4.95;;
39924;SDS011;25592;49.986;11.618;2023-05-16T00:58:29;9.77;;;5.25;;
39924;SDS011;25592;49.986;11.618;2023-05-16T01:01:16;8.80;;;5.70;;
39924;SDS011;25592;49.986;11.618;2023-05-16T01:04:04;8.43;;;4.85;;
39924;SDS011;25592;49.986;11.618;2023-05-16T01:06:50;58.80;;;27.02;;
39924;SDS011;25592;49.986;11.618;2023-05-16T01:09:36;14.70;;;8.65;;
39924;SDS011;25592;49.986;11.618;2023-05-16T01:12:40;10.30;;;5.65;;
39924;SDS011;25592;49.986;11.618;2023-05-16T01:15:27;17.58;;;8.88;;
39924;SDS011;25592;49.986;11.618;2023-05-16T01:21:24;10.93;;;6.03;;
39924;SDS011;25592;49.986;11.618;2023-05-16T01:27:38;9.45;;;6.18;;
39924;SDS011;25592;49.986;11.618;2023-05-16T01:30:24;9.07;;;5.90;;
39924;SDS011;25592;49.986;11.618;2023-05-16T01:33:10;7.78;;;5.53;;
39924;SDS011;25592;49.986;11.618;2023-05-16T01:36:05;8.00;;;6.05;;
39924;SDS011;25592;49.986;11.618;2023-05-16T01:39:16;9.45;;;6.00;;
39924;SDS011;25592;49.986;11.618;2023-05-16T01:42:15;12.05;;;6.40;;
39924;SDS011;25592;49.986;11.618;2023-05-16T01:45:07;9.27;;;5.75;;
39924;SDS011;25592;49.986;11.618;2023-05-16T01:47:59;9.48;;;6.07;;
39924;SDS011;25592;49.986;11.618;2023-05-16T01:50:53;8.77;;;5.53;;
39924;SDS011;25592;49.986;11.618;2023-05-16T01:53:41;9.27;;;4.97;;
39924;SDS011;25592;49.986;11.618;2023-05-16T01:56:29;6.68;;;5.05;;
39924;SDS011;25592;49.986;11.618;2023-05-16T01:59:16;6.93;;;5.85;;
39924;SDS011;25592;49.986;11.618;2023-05-16T02:02:02;9.05;;;6.72;;
39924;SDS011;25592;49.986;11.618;2023-05-16T02:04:48;9.98;;;6.70;;
39924;SDS011;25592;49.986;11.618;2023-05-16T02:07:34;13.77;;;5.90;;
39924;SDS011;25592;49.986;11.618;2023-05-16T02:10:20;7.97;;;5.30;;
39924;SDS011;25592;49.986;11.618;2023-05-16T02:13:05;8.38;;;5.28;;
39924;SDS011;25592;49.986;11.618;2023-05-16T02:15:51;10.20;;;5.97;;
39924;SDS011;25592;49.986;11.618;2023-05-16T02:18:37;9.18;;;5.65;;
39924;SDS011;25592;49.986;11.618;2023-05-16T02:21:22;10.23;;;5.63;;
39924;SDS011;25592;49.986;11.618;2023-05-16T02:24:08;6.75;;;5.28;;
39924;SDS011;25592;49.986;11.618;2023-05-16T02:26:53;7.70;;;5.82;;
39924;SDS011;25592;49.986;11.618;2023-05-16T02:29:39;10.27;;;5.28;;
39924;SDS011;25592;49.986;11.618;2023-05-16T02:32:24;9.68;;;6.18;;
39924;SDS011;25592;49.986;11.618;2023-05-16T02:35:10;8.00;;;6.10;;
39924;SDS011;25592;49.986;11.618;2023-05-16T02:37:56;10.57;;;6.78;;
39924;SDS011;25592;49.986;11.618;2023-05-16T02:40:42;8.57;;;6.63;;
39924;SDS011;25592;49.986;11.618;2023-05-16T02:43:27;8.98;;;6.20;;
39924;SDS011;25592;49.986;11.618;2023-05-16T02:46:19;11.27;;;7.07;;
39924;SDS011;25592;49.986;11.618;2023-05-16T02:49:09;11.13;;;7.65;;
39924;SDS011;25592;49.986;11.618;2023-05-16T02:51:54;13.48;;;8.63;;
39924;SDS011;25592;49.986;11.618;2023-05-16T02:54:39;10.95;;;7.75;;
39924;SDS011;25592;49.986;11.618;2023-05-16T02:57:25;10.30;;;7.82;;
39924;SDS011;25592;49.986;11.618;2023-05-16T03:00:10;11.20;;;7.55;;
39924;SDS011;25592;49.986;11.618;2023-05-16T03:02:56;12.05;;;7.82;;
39924;SDS011;25592;49.986;11.618;2023-05-16T03:05:42;11.95;;;8.32;;
39924;SDS011;25592;49.986;11.618;2023-05-16T03:08:27;14.98;;;8.00;;
39924;SDS011;25592;49.986;11.618;2023-05-16T03:11:13;12.30;;;7.70;;
39924;SDS011;25592;49.986;11.618;2023-05-16T03:13:58;10.00;;;7.20;;
39924;SDS011;25592;49.986;11.618;2023-05-16T03:16:45;14.00;;;7.75;;
39924;SDS011;25592;49.986;11.618;2023-05-16T03:19:31;12.07;;;7.80;;
39924;SDS011;25592;49.986;11.618;2023-05-16T03:22:18;11.07;;;7.50;;
39924;SDS011;25592;49.986;11.618;2023-05-16T03:25:03;9.45;;;6.68;;
39924;SDS011;25592;49.986;11.618;2023-05-16T03:27:49;10.30;;;6.60;;
39924;SDS011;25592;49.986;11.618;2023-05-16T03:30:34;8.27;;;6.03;;
39924;SDS011;25592;49.986;11.618;2023-05-16T03:33:20;9.35;;;5.88;;
39924;SDS011;25592;49.986;11.618;2023-05-16T03:36:05;8.45;;;6.10;;
39924;SDS011;25592;49.986;11.618;2023-05-16T03:38:51;10.10;;;6.82;;
39924;SDS011;25592;49.986;11.618;2023-05-16T03:41:36;9.32;;;6.13;;
39924;SDS011;25592;49.986;11.618;2023-05-16T03:44:22;10.55;;;6.47;;
39924;SDS011;25592;49.986;11.618;2023-05-16T03:47:07;9.55;;;6.43;;
39924;SDS011;25592;49.986;11.618;2023-05-16T03:49:53;11.18;;;6.68;;
39924;SDS011;25592;49.986;11.618;2023-05-16T03:52:38;10.68;;;6.25;;
39924;SDS011;25592;49.986;11.618;2023-05-16T03:55:23;7.90;;;5.85;;
39924;SDS011;25592;49.986;11.618;2023-05-16T03:58:09;8.20;;;5.57;;
39924;SDS011;25592;49.986;11.618;2023-05-16T04:00:56;8.80;;;5.75;;
39924;SDS011;25592;49.986;11.618;2023-05-16T04:03:41;10.07;;;6.55;;
39924;SDS011;25592;49.986;11.618;2023-05-16T04:06:26;9.10;;;5.60;;
39924;SDS011;25592;49.986;11.618;2023-05-16T04:09:12;11.30;;;6.88;;
39924;SDS011;25592;49.986;11.618;2023-05-16T04:11:57;8.70;;;6.28;;
39924;SDS011;25592;49.986;11.618;2023-05-16T04:14:45;11.45;;;6.47;;
39924;SDS011;25592;49.986;11.618;2023-05-16T04:17:31;9.95;;;6.57;;
39924;SDS011;25592;49.986;11.618;2023-05-16T04:20:16;9.75;;;7.25;;
39924;SDS011;25592;49.986;11.618;2023-05-16T04:23:02;8.43;;;6.43;;
39924;SDS011;25592;49.986;11.618;2023-05-16T04:25:47;9.13;;;6.43;;
39924;SDS011;25592;49.986;11.618;2023-05-16T04:28:34;9.05;;;5.95;;
39924;SDS011;25592;49.986;11.618;2023-05-16T04:31:19;10.32;;;7.07;;
39924;SDS011;25592;49.986;11.618;2023-05-16T04:34:06;10.57;;;7.38;;
39924;SDS011;25592;49.986;11.618;2023-05-16T04:36:52;12.20;;;7.43;;
39924;SDS011;25592;49.986;11.618;2023-05-16T04:39:38;11.85;;;6.85;;
39924;SDS011;25592;49.986;11.618;2023-05-16T04:42:24;9.98;;;7.72;;
39924;SDS011;25592;49.986;11.618;2023-05-16T04:45:09;12.70;;;7.88;;
39924;SDS011;25592;49.986;11.618;2023-05-16T04:47:55;10.88;;;8.07;;
39924;SDS011;25592;49.986;11.618;2023-05-16T04:50:40;14.07;;;8.10;;
39924;SDS011;25592;49.986;11.618;2023-05-16T04:53:26;12.68;;;7.90;;
39924;SDS011;25592;49.986;11.618;2023-05-16T04:56:11;10.63;;;8.32;;
39924;SDS011;25592;49.986;11.618;2023-05-16T04:58:57;8.57;;;6.50;;
39924;SDS011;25592;49.986;11.618;2023-05-16T05:01:42;8.60;;;6.18;;
39924;SDS011;25592;49.986;11.618;2023-05-16T05:04:27;9.88;;;6.57;;
39924;SDS011;25592;49.986;11.618;2023-05-16T05:07:13;13.25;;;7.05;;
39924;SDS011;25592;49.986;11.618;2023-05-16T05:09:58;8.80;;;6.68;;
39924;SDS011;25592;49.986;11.618;2023-05-16T05:12:44;10.57;;;6.43;;
39924;SDS011;25592;49.986;11.618;2023-05-16T05:15:29;12.02;;;6.63;;
39924;SDS011;25592;49.986;11.618;2023-05-16T05:18:15;13.90;;;6.80;;
39924;SDS011;25592;49.986;11.618;2023-05-16T05:21:00;14.23;;;6.65;;
39924;SDS011;25592;49.986;11.618;2023-05-16T05:23:46;13.45;;;7.25;;
39924;SDS011;25592;49.986;11.618;2023-05-16T05:26:33;12.63;;;7.25;;
39924;SDS011;25592;49.986;11.618;2023-05-16T05:29:18;7.78;;;6.00;;
39924;SDS011;25592;49.986;11.618;2023-05-16T05:32:04;10.77;;;7.03;;
39924;SDS011;25592;49.986;11.618;2023-05-16T05:34:49;10.73;;;6.97;;
39924;SDS011;25592;49.986;11.618;2023-05-16T05:37:35;10.02;;;6.95;;
39924;SDS011;25592;49.986;11.618;2023-05-16T05:40:21;9.85;;;6.65;;
39924;SDS011;25592;49.986;11.618;2023-05-16T05:43:06;16.50;;;7.57;;
39924;SDS011;25592;49.986;11.618;2023-05-16T05:45:52;10.63;;;7.30;;
39924;SDS011;25592;49.986;11.618;2023-05-16T05:48:37;8.55;;;6.47;;
39924;SDS011;25592;49.986;11.618;2023-05-16T05:51:23;11.02;;;6.75;;
39924;SDS011;25592;49.986;11.618;2023-05-16T05:54:09;12.85;;;6.90;;
39924;SDS011;25592;49.986;11.618;2023-05-16T05:56:58;12.15;;;6.80;;
39924;SDS011;25592;49.986;11.618;2023-05-16T05:59:43;8.40;;;6.45;;
39924;SDS011;25592;49.986;11.618;2023-05-16T06:02:29;11.80;;;6.97;;
39924;SDS011;25592;49.986;11.618;2023-05-16T06:05:14;10.88;;;6.55;;
39924;SDS011;25592;49.986;11.618;2023-05-16T06:07:59;11.63;;;7.32;;
39924;SDS011;25592;49.986;11.618;2023-05-16T06:10:45;9.65;;;6.90;;
39924;SDS011;25592;49.986;11.618;2023-05-16T06:13:31;10.10;;;6.65;;
39924;SDS011;25592;49.986;11.618;2023-05-16T06:16:16;12.05;;;8.40;;
39924;SDS011;25592;49.986;11.618;2023-05-16T06:19:02;13.02;;;8.27;;
39924;SDS011;25592;49.986;11.618;2023-05-16T06:21:48;11.02;;;8.65;;
39924;SDS011;25592;49.986;11.618;2023-05-16T06:24:33;12.85;;;7.53;;
39924;SDS011;25592;49.986;11.618;2023-05-16T06:27:18;9.95;;;7.65;;
39924;SDS011;25592;49.986;11.618;2023-05-16T06:30:04;11.10;;;8.65;;
39924;SDS011;25592;49.986;11.618;2023-05-16T06:32:50;14.38;;;8.95;;
39924;SDS011;25592;49.986;11.618;2023-05-16T06:35:35;16.45;;;8.70;;
39924;SDS011;25592;49.986;11.618;2023-05-16T06:38:21;14.40;;;8.40;;
39924;SDS011;25592;49.986;11.618;2023-05-16T06:41:06;11.10;;;8.00;;
39924;SDS011;25592;49.986;11.618;2023-05-16T06:43:51;10.63;;;8.40;;
39924;SDS011;25592;49.986;11.618;2023-05-16T06:46:37;11.38;;;8.07;;
39924;SDS011;25592;49.986;11.618;2023-05-16T06:49:22;11.98;;;9.02;;
39924;SDS011;25592;49.986;11.618;2023-05-16T06:52:08;12.18;;;7.82;;
39924;SDS011;25592;49.986;11.618;2023-05-16T06:54:53;12.35;;;8.38;;
39924;SDS011;25592;49.986;11.618;2023-05-16T06:57:39;11.80;;;9.25;;
39924;SDS011;25592;49.986;11.618;2023-05-16T07:00:24;13.93;;;9.18;;
39924;SDS011;25592;49.986;11.618;2023-05-16T07:03:11;14.90;;;9.23;;
39924;SDS011;25592;49.986;11.618;2023-05-16T07:05:57;13.50;;;9.95;;
39924;SDS011;25592;49.986;11.618;2023-05-16T07:08:42;13.63;;;8.82;;
39924;SDS011;25592;49.986;11.618;2023-05-16T07:11:27;14.57;;;9.27;;
39924;SDS011;25592;49.986;11.618;2023-05-16T07:14:13;14.85;;;9.32;;
39924;SDS011;25592;49.986;11.618;2023-05-16T07:16:58;12.63;;;9.25;;
39924;SDS011;25592;49.986;11.618;2023-05-16T07:19:44;12.52;;;8.38;;
39924;SDS011;25592;49.986;11.618;2023-05-16T07:22:30;12.20;;;8.65;;
39924;SDS011;25592;49.986;11.618;2023-05-16T07:25:17;11.23;;;8.15;;
39924;SDS011;25592;49.986;11.618;2023-05-16T07:28:03;12.85;;;8.45;;
39924;SDS011;25592;49.986;11.618;2023-05-16T07:30:48;12.35;;;8.55;;
39924;SDS011;25592;49.986;11.618;2023-05-16T07:33:33;15.15;;;9.35;;
39924;SDS011;25592;49.986;11.618;2023-05-16T07:36:19;11.60;;;8.45;;
39924;SDS011;25592;49.986;11.618;2023-05-16T07:39:05;13.93;;;8.52;;
39924;SDS011;25592;49.986;11.618;2023-05-16T07:41:50;10.35;;;7.93;;
39924;SDS011;25592;49.986;11.618;2023-05-16T07:44:36;10.27;;;8.05;;
39924;SDS011;25592;49.986;11.618;2023-05-16T07:47:21;13.50;;;8.73;;
39924;SDS011;25592;49.986;11.618;2023-05-16T07:50:07;13.85;;;9.68;;
39924;SDS011;25592;49.986;11.618;2023-05-16T07:52:52;14.55;;;8.45;;
39924;SDS011;25592;49.986;11.618;2023-05-16T07:55:38;11.88;;;8.23;;
39924;SDS011;25592;49.986;11.618;2023-05-16T07:58:23;11.52;;;7.60;;
39924;SDS011;25592;49.986;11.618;2023-05-16T08:01:08;15.90;;;10.15;;
39924;SDS011;25592;49.986;11.618;2023-05-16T08:03:54;13.60;;;7.30;;
39924;SDS011;25592;49.986;11.618;2023-05-16T08:06:39;12.38;;;8.85;;
39924;SDS011;25592;49.986;11.618;2023-05-16T08:09:24;11.20;;;8.40;;
39924;SDS011;25592;49.986;11.618;2023-05-16T08:12:10;9.50;;;6.90;;
39924;SDS011;25592;49.986;11.618;2023-05-16T08:14:55;9.95;;;7.32;;
39924;SDS011;25592;49.986;11.618;2023-05-16T08:17:41;10.27;;;7.78;;
39924;SDS011;25592;49.986;11.618;2023-05-16T08:20:26;9.20;;;6.28;;
39924;SDS011;25592;49.986;11.618;2023-05-16T08:23:12;10.15;;;6.93;;
39924;SDS011;25592;49.986;11.618;2023-05-16T08:25:57;8.98;;;6.38;;
39924;SDS011;25592;49.986;11.618;2023-05-16T08:28:43;10.23;;;6.60;;
39924;SDS011;25592;49.986;11.618;2023-05-16T08:31:28;9.23;;;6.63;;
39924;SDS011;25592;49.986;11.618;2023-05-16T08:34:14;10.60;;;6.85;;
39924;SDS011;25592;49.986;11.618;2023-05-16T08:36:59;10.68;;;7.13;;
39924;SDS011;25592;49.986;11.618;2023-05-16T08:39:45;8.38;;;6.65;;
39924;SDS011;25592;49.986;11.618;2023-05-16T08:42:30;8.07;;;6.25;;
39924;SDS011;25592;49.986;11.618;2023-05-16T08:45:17;11.57;;;6.38;;
39924;SDS011;25592;49.986;11.618;2023-05-16T08:48:03;10.75;;;7.30;;
39924;SDS011;25592;49.986;11.618;2023-05-16T08:50:52;11.70;;;6.65;;
39924;SDS011;25592;49.986;11.618;2023-05-16T08:53:39;12.77;;;6.85;;
39924;SDS011;25592;49.986;11.618;2023-05-16T08:56:29;11.02;;;6.32;;
39924;SDS011;25592;49.986;11.618;2023-05-16T08:59:15;8.82;;;6.15;;
39924;SDS011;25592;49.986;11.618;2023-05-16T09:02:02;9.45;;;5.60;;
39924;SDS011;25592;49.986;11.618;2023-05-16T09:04:49;7.22;;;5.80;;
39924;SDS011;25592;49.986;11.618;2023-05-16T09:07:35;10.85;;;6.65;;
39924;SDS011;25592;49.986;11.618;2023-05-16T09:10:21;10.43;;;6.32;;
39924;SDS011;25592;49.986;11.618;2023-05-16T09:13:06;10.55;;;6.75;;
39924;SDS011;25592;49.986;11.618;2023-05-16T09:19:00;14.27;;;6.43;;
39924;SDS011;25592;49.986;11.618;2023-05-16T09:21:45;8.52;;;5.85;;
39924;SDS011;25592;49.986;11.618;2023-05-16T09:24:31;7.20;;;5.22;;
39924;SDS011;25592;49.986;11.618;2023-05-16T09:27:17;11.40;;;5.57;;
39924;SDS011;25592;49.986;11.618;2023-05-16T09:30:02;8.05;;;5.35;;
39924;SDS011;25592;49.986;11.618;2023-05-16T09:32:49;6.90;;;4.60;;
39924;SDS011;25592;49.986;11.618;2023-05-16T09:35:36;6.53;;;4.90;;
39924;SDS011;25592;49.986;11.618;2023-05-16T09:38:25;9.15;;;5.15;;
39924;SDS011;25592;49.986;11.618;2023-05-16T09:41:11;7.88;;;5.07;;
39924;SDS011;25592;49.986;11.618;2023-05-16T09:43:57;6.88;;;5.30;;
39924;SDS011;25592;49.986;11.618;2023-05-16T09:46:43;7.80;;;5.13;;
39924;SDS011;25592;49.986;11.618;2023-05-16T09:49:28;7.30;;;4.85;;
39924;SDS011;25592;49.986;11.618;2023-05-16T09:52:14;7.90;;;4.68;;
39924;SDS011;25592;49.986;11.618;2023-05-16T09:55:01;8.40;;;4.95;;
39924;SDS011;25592;49.986;11.618;2023-05-16T09:57:49;5.97;;;4.90;;
39924;SDS011;25592;49.986;11.618;2023-05-16T10:00:34;8.30;;;4.90;;
39924;SDS011;25592;49.986;11.618;2023-05-16T10:03:20;8.50;;;5.35;;
39924;SDS011;25592;49.986;11.618;2023-05-16T10:06:06;8.80;;;5.50;;
39924;SDS011;25592;49.986;11.618;2023-05-16T10:08:52;11.98;;;4.90;;
39924;SDS011;25592;49.986;11.618;2023-05-16T10:11:41;9.25;;;5.22;;
39924;SDS011;25592;49.986;11.618;2023-05-16T10:14:27;7.18;;;4.75;;
39924;SDS011;25592;49.986;11.618;2023-05-16T10:17:14;7.05;;;4.30;;
39924;SDS011;25592;49.986;11.618;2023-05-16T10:20:00;6.68;;;4.97;;
39924;SDS011;25592;49.986;11.618;2023-05-16T10:22:49;6.05;;;4.05;;
39924;SDS011;25592;49.986;11.618;2023-05-16T10:25:39;6.40;;;4.60;;
39924;SDS011;25592;49.986;11.618;2023-05-16T10:28:25;6.65;;;4.47;;
39924;SDS011;25592;49.986;11.618;2023-05-16T10:31:12;7.82;;;4.78;;
39924;SDS011;25592;49.986;11.618;2023-05-16T10:33:59;6.88;;;5.10;;
39924;SDS011;25592;49.986;11.618;2023-05-16T10:36:45;8.23;;;4.65;;
39924;SDS011;25592;49.986;11.618;2023-05-16T10:39:31;6.57;;;4.30;;
39924;SDS011;25592;49.986;11.618;2023-05-16T10:42:17;11.88;;;5.38;;
39924;SDS011;25592;49.986;11.618;2023-05-16T10:45:16;9.82;;;5.53;;
39924;SDS011;25592;49.986;11.618;2023-05-16T10:48:03;8.30;;;4.53;;
39924;SDS011;25592;49.986;11.618;2023-05-16T10:50:51;5.55;;;3.97;;
39924;SDS011;25592;49.986;11.618;2023-05-16T10:53:35;6.53;;;4.65;;
39924;SDS011;25592;49.986;11.618;2023-05-16T10:56:22;6.30;;;4.20;;
39924;SDS011;25592;49.986;11.618;2023-05-16T10:59:21;6.88;;;4.30;;
39924;SDS011;25592;49.986;11.618;2023-05-16T11:02:21;7.07;;;4.00;;
39924;SDS011;25592;49.986;11.618;2023-05-16T11:05:11;5.68;;;3.58;;
39924;SDS011;25592;49.986;11.618;2023-05-16T11:08:04;6.05;;;4.00;;
39924;SDS011;25592;49.986;11.618;2023-05-16T11:10:50;8.32;;;4.75;;
39924;SDS011;25592;49.986;11.618;2023-05-16T11:14:24;6.13;;;4.78;;
39924;SDS011;25592;49.986;11.618;2023-05-16T11:17:20;6.20;;;4.65;;
39924;SDS011;25592;49.986;11.618;2023-05-16T11:20:06;7.03;;;4.82;;
39924;SDS011;25592;49.986;11.618;2023-05-16T11:26:02;6.85;;;4.07;;
39924;SDS011;25592;49.986;11.618;2023-05-16T11:28:48;5.53;;;3.53;;
39924;SDS011;25592;49.986;11.618;2023-05-16T11:31:34;6.75;;;4.15;;
39924;SDS011;25592;49.986;11.618;2023-05-16T11:34:20;8.55;;;3.90;;
39924;SDS011;25592;49.986;11.618;2023-05-16T11:37:05;6.90;;;4.03;;
39924;SDS011;25592;49.986;11.618;2023-05-16T11:39:58;9.57;;;3.75;;
39924;SDS011;25592;49.986;11.618;2023-05-16T11:42:45;5.43;;;3.40;;
39924;SDS011;25592;49.986;11.618;2023-05-16T11:45:32;5.30;;;3.40;;
39924;SDS011;25592;49.986;11.618;2023-05-16T11:48:18;4.88;;;2.80;;
39924;SDS011;25592;49.986;11.618;2023-05-16T11:51:19;4.38;;;3.20;;
39924;SDS011;25592;49.986;11.618;2023-05-16T11:54:06;6.32;;;3.55;;
39924;SDS011;25592;49.986;11.618;2023-05-16T11:56:53;4.82;;;3.13;;
39924;SDS011;25592;49.986;11.618;2023-05-16T11:59:38;5.35;;;3.00;;
39924;SDS011;25592;49.986;11.618;2023-05-16T12:02:27;7.43;;;3.22;;
39924;SDS011;25592;49.986;11.618;2023-05-16T12:05:14;5.32;;;2.90;;
39924;SDS011;25592;49.986;11.618;2023-05-16T12:08:01;4.65;;;3.10;;
39924;SDS011;25592;49.986;11.618;2023-05-16T12:10:50;5.60;;;3.13;;
39924;SDS011;25592;49.986;11.618;2023-05-16T12:13:36;4.22;;;2.83;;
39924;SDS011;25592;49.986;11.618;2023-05-16T12:16:22;6.65;;;3.20;;
39924;SDS011;25592;49.986;11.618;2023-05-16T12:19:07;4.45;;;3.20;;
39924;SDS011;25592;49.986;11.618;2023-05-16T12:21:53;5.10;;;3.05;;
39924;SDS011;25592;49.986;11.618;2023-05-16T12:24:39;4.80;;;3.30;;
39924;SDS011;25592;49.986;11.618;2023-05-16T12:27:25;5.55;;;3.05;;
39924;SDS011;25592;49.986;11.618;2023-05-16T12:30:15;4.28;;;2.78;;
39924;SDS011;25592;49.986;11.618;2023-05-16T12:33:26;4.82;;;2.97;;
39924;SDS011;25592;49.986;11.618;2023-05-16T12:36:12;6.40;;;2.92;;
39924;SDS011;25592;49.986;11.618;2023-05-16T12:39:00;7.25;;;3.20;;
39924;SDS011;25592;49.986;11.618;2023-05-16T12:41:48;5.13;;;2.75;;
39924;SDS011;25592;49.986;11.618;2023-05-16T12:44:34;4.85;;;2.75;;
39924;SDS011;25592;49.986;11.618;2023-05-16T12:47:19;5.57;;;2.80;;
39924;SDS011;25592;49.986;11.618;2023-05-16T12:50:14;5.50;;;3.47;;
39924;SDS011;25592;49.986;11.618;2023-05-16T12:53:01;5.35;;;3.22;;
39924;SDS011;25592;49.986;11.618;2023-05-16T12:55:47;6.40;;;3.60;;
39924;SDS011;25592;49.986;11.618;2023-05-16T12:58:32;11.48;;;4.00;;
39924;SDS011;25592;49.986;11.618;2023-05-16T13:01:17;5.63;;;3.60;;
39924;SDS011;25592;49.986;11.618;2023-05-16T13:04:03;8.63;;;4.13;;
39924;SDS011;25592;49.986;11.618;2023-05-16T13:06:49;6.00;;;4.13;;
39924;SDS011;25592;49.986;11.618;2023-05-16T13:09:37;6.93;;;3.95;;
39924;SDS011;25592;49.986;11.618;2023-05-16T13:12:23;5.80;;;4.10;;
39924;SDS011;25592;49.986;11.618;2023-05-16T13:15:10;8.63;;;3.75;;
39924;SDS011;25592;49.986;11.618;2023-05-16T13:17:56;8.15;;;3.85;;
39924;SDS011;25592;49.986;11.618;2023-05-16T13:20:41;7.75;;;4.10;;
39924;SDS011;25592;49.986;11.618;2023-05-16T13:23:28;5.88;;;3.63;;
39924;SDS011;25592;49.986;11.618;2023-05-16T13:26:13;6.63;;;3.92;;
39924;SDS011;25592;49.986;11.618;2023-05-16T13:28:59;6.47;;;3.60;;
39924;SDS011;25592;49.986;11.618;2023-05-16T13:31:45;5.30;;;3.80;;
39924;SDS011;25592;49.986;11.618;2023-05-16T13:34:31;5.65;;;3.03;;
39924;SDS011;25592;49.986;11.618;2023-05-16T13:37:16;6.25;;;3.72;;
39924;SDS011;25592;49.986;11.618;2023-05-16T13:40:03;5.30;;;3.33;;
39924;SDS011;25592;49.986;11.618;2023-05-16T13:42:48;4.18;;;3.20;;
39924;SDS011;25592;49.986;11.618;2023-05-16T13:45:34;5.00;;;3.35;;
39924;SDS011;25592;49.986;11.618;2023-05-16T13:48:21;6.75;;;3.70;;
39924;SDS011;25592;49.986;11.618;2023-05-16T13:51:06;5.95;;;3.88;;
39924;SDS011;25592;49.986;11.618;2023-05-16T13:53:52;6.28;;;3.85;;
39924;SDS011;25592;49.986;11.618;2023-05-16T13:56:37;6.22;;;3.47;;
39924;SDS011;25592;49.986;11.618;2023-05-16T13:59:22;9.23;;;3.80;;
39924;SDS011;25592;49.986;11.618;2023-05-16T14:02:27;6.10;;;3.90;;
39924;SDS011;25592;49.986;11.618;2023-05-16T14:05:13;6.70;;;4.03;;
39924;SDS011;25592;49.986;11.618;2023-05-16T14:07:58;11.65;;;4.75;;
39924;SDS011;25592;49.986;11.618;2023-05-16T14:10:44;8.65;;;4.53;;
39924;SDS011;25592;49.986;11.618;2023-05-16T14:13:30;7.85;;;4.60;;
39924;SDS011;25592;49.986;11.618;2023-05-16T14:16:16;7.38;;;4.25;;
39924;SDS011;25592;49.986;11.618;2023-05-16T14:19:01;9.98;;;4.75;;
39924;SDS011;25592;49.986;11.618;2023-05-16T14:21:47;8.30;;;4.30;;
39924;SDS011;25592;49.986;11.618;2023-05-16T14:24:33;8.55;;;4.40;;
39924;SDS011;25592;49.986;11.618;2023-05-16T14:27:18;7.90;;;4.70;;
39924;SDS011;25592;49.986;11.618;2023-05-16T14:30:04;6.30;;;4.07;;
39924;SDS011;25592;49.986;11.618;2023-05-16T14:32:50;5.47;;;3.85;;
39924;SDS011;25592;49.986;11.618;2023-05-16T14:35:35;6.57;;;3.85;;
39924;SDS011;25592;49.986;11.618;2023-05-16T14:38:22;4.82;;;2.88;;
39924;SDS011;25592;49.986;11.618;2023-05-16T14:41:07;6.95;;;3.63;;
39924;SDS011;25592;49.986;11.618;2023-05-16T14:43:53;3.50;;;2.20;;
39924;SDS011;25592;49.986;11.618;2023-05-16T14:46:38;5.38;;;2.67;;
39924;SDS011;25592;49.986;11.618;2023-05-16T14:49:25;8.80;;;2.42;;
39924;SDS011;25592;49.986;11.618;2023-05-16T14:52:10;6.05;;;2.30;;
39924;SDS011;25592;49.986;11.618;2023-05-16T14:54:55;5.35;;;2.10;;
39924;SDS011;25592;49.986;11.618;2023-05-16T14:57:41;6.90;;;2.22;;
39924;SDS011;25592;49.986;11.618;2023-05-16T15:00:29;6.30;;;2.10;;
39924;SDS011;25592;49.986;11.618;2023-05-16T15:03:16;3.38;;;1.80;;
39924;SDS011;25592;49.986;11.618;2023-05-16T15:06:01;4.60;;;2.10;;
39924;SDS011;25592;49.986;11.618;2023-05-16T15:08:52;4.47;;;2.28;;
39924;SDS011;25592;49.986;11.618;2023-05-16T15:11:37;3.75;;;1.98;;
39924;SDS011;25592;49.986;11.618;2023-05-16T15:14:22;5.13;;;2.40;;
39924;SDS011;25592;49.986;11.618;2023-05-16T15:17:08;8.07;;;2.30;;
39924;SDS011;25592;49.986;11.618;2023-05-16T15:19:53;8.43;;;2.78;;
39924;SDS011;25592;49.986;11.618;2023-05-16T15:22:39;4.70;;;1.98;;
39924;SDS011;25592;49.986;11.618;2023-05-16T15:25:26;5.13;;;1.83;;
39924;SDS011;25592;49.986;11.618;2023-05-16T15:28:12;2.78;;;1.48;;
39924;SDS011;25592;49.986;11.618;2023-05-16T15:30:57;5.35;;;1.65;;
39924;SDS011;25592;49.986;11.618;2023-05-16T15:33:43;6.70;;;2.28;;
39924;SDS011;25592;49.986;11.618;2023-05-16T15:36:32;5.90;;;1.65;;
39924;SDS011;25592;49.986;11.618;2023-05-16T15:39:17;5.40;;;1.63;;
39924;SDS011;25592;49.986;11.618;2023-05-16T15:42:02;4.55;;;1.40;;
39924;SDS011;25592;49.986;11.618;2023-05-16T15:44:52;5.05;;;1.98;;
39924;SDS011;25592;49.986;11.618;2023-05-16T15:47:38;6.57;;;1.67;;
39924;SDS011;25592;49.986;11.618;2023-05-16T15:50:25;7.13;;;1.50;;
39924;SDS011;25592;49.986;11.618;2023-05-16T15:53:11;5.05;;;2.00;;
39924;SDS011;25592;49.986;11.618;2023-05-16T15:55:56;4.30;;;1.65;;
39924;SDS011;25592;49.986;11.618;2023-05-16T15:58:41;5.18;;;1.70;;
39924;SDS011;25592;49.986;11.618;2023-05-16T16:01:30;8.85;;;2.35;;
39924;SDS011;25592;49.986;11.618;2023-05-16T16:04:16;5.72;;;1.75;;
39924;SDS011;25592;49.986;11.618;2023-05-16T16:07:05;4.53;;;1.75;;
39924;SDS011;25592;49.986;11.618;2023-05-16T16:09:51;4.93;;;1.52;;
39924;SDS011;25592;49.986;11.618;2023-05-16T16:12:36;4.45;;;1.75;;
39924;SDS011;25592;49.986;11.618;2023-05-16T16:15:21;5.55;;;1.65;;
39924;SDS011;25592;49.986;11.618;2023-05-16T16:18:07;5.07;;;1.95;;
39924;SDS011;25592;49.986;11.618;2023-05-16T16:20:52;5.15;;;1.73;;
39924;SDS011;25592;49.986;11.618;2023-05-16T16:23:38;4.57;;;1.60;;
39924;SDS011;25592;49.986;11.618;2023-05-16T16:26:23;11.13;;;2.55;;
39924;SDS011;25592;49.986;11.618;2023-05-16T16:29:10;3.78;;;1.60;;
39924;SDS011;25592;49.986;11.618;2023-05-16T16:31:55;5.55;;;1.95;;
39924;SDS011;25592;49.986;11.618;2023-05-16T16:34:40;7.68;;;1.90;;
39924;SDS011;25592;49.986;11.618;2023-05-16T16:37:26;8.70;;;2.47;;